sensor_id;sensor_type;location;lat;lon;timestamp;pressure;altitude;pressure_sealevel;temperature;humidity
69221;BME280;56331;51.992;20.910;2023-04-07T00:01:50;100061.13;;;21.77;33.07
69221;BME280;56331;51.992;20.910;2023-04-07T00:04:18;100055.00;;;21.77;33.10
69221;BME280;56331;51.992;20.910;2023-04-07T00:06:45;100052.44;;;21.78;33.03
69221;BME280;56331;51.992;20.910;2023-04-07T00:09:11;100049.67;;;21.78;33.01
69221;BME280;56331;51.992;20.910;2023-04-07T00:11:38;100050.03;;;21.77;33.04
69221;BME280;56331;51.992;20.910;2023-04-07T00:14:05;100048.40;;;21.76;33.02
69221;BME280;56331;51.992;20.910;2023-04-07T00:16:31;100046.09;;;21.78;33.02
69221;BME280;56331;51.992;20.910;2023-04-07T00:18:58;100050.84;;;21.77;33.00
69221;BME280;56331;51.992;20.910;2023-04-07T00:21:24;100036.97;;;21.77;33.04
69221;BME280;56331;51.992;20.910;2023-04-07T00:23:52;100043.66;;;21.76;33.01
69221;BME280;56331;51.992;20.910;2023-04-07T00:26:18;100036.97;;;21.77;32.98
69221;BME280;56331;51.992;20.910;2023-04-07T00:28:45;100036.39;;;21.78;33.00
69221;BME280;56331;51.992;20.910;2023-04-07T00:31:13;100031.43;;;21.77;33.02
69221;BME280;56331;51.992;20.910;2023-04-07T00:33:39;100031.65;;;21.78;33.01
69221;BME280;56331;51.992;20.910;2023-04-07T00:36:06;100029.67;;;21.79;32.94
69221;BME280;56331;51.992;20.910;2023-04-07T00:38:33;100027.48;;;21.78;32.97
69221;BME280;56331;51.992;20.910;2023-04-07T00:41:00;100030.05;;;21.77;32.98
69221;BME280;56331;51.992;20.910;2023-04-07T00:43:26;100025.52;;;21.79;32.95
69221;BME280;56331;51.992;20.910;2023-04-07T00:45:55;100025.88;;;21.77;32.94
69221;BME280;56331;51.992;20.910;2023-04-07T00:48:22;100025.08;;;21.77;33.00
69221;BME280;56331;51.992;20.910;2023-04-07T00:50:48;100025.08;;;21.77;32.97
69221;BME280;56331;51.992;20.910;2023-04-07T00:53:15;100017.90;;;21.76;33.01
69221;BME280;56331;51.992;20.910;2023-04-07T00:55:42;100017.31;;;21.76;32.97
69221;BME280;56331;51.992;20.910;2023-04-07T00:58:09;100014.33;;;21.75;32.98
69221;BME280;56331;51.992;20.910;2023-04-07T01:00:42;100018.70;;;21.76;32.96
69221;BME280;56331;51.992;20.910;2023-04-07T01:03:18;100012.72;;;21.74;32.99
69221;BME280;56331;51.992;20.910;2023-04-07T01:08:32;100013.16;;;21.76;32.89
69221;BME280;56331;51.992;20.910;2023-04-07T01:11:05;100013.52;;;21.75;32.96
69221;BME280;56331;51.992;20.910;2023-04-07T01:13:36;100016.30;;;21.75;32.92
69221;BME280;56331;51.992;20.910;2023-04-07T01:16:07;100008.56;;;21.74;32.96
69221;BME280;56331;51.992;20.910;2023-04-07T01:18:34;100009.48;;;21.72;32.95
69221;BME280;56331;51.992;20.910;2023-04-07T01:21:16;100015.25;;;21.73;32.93
69221;BME280;56331;51.992;20.910;2023-04-07T01:26:32;100013.39;;;21.71;33.04
69221;BME280;56331;51.992;20.910;2023-04-07T01:29:36;100007.30;;;21.72;33.04
69221;BME280;56331;51.992;20.910;2023-04-07T01:32:04;100010.62;;;21.71;32.96
69221;BME280;56331;51.992;20.910;2023-04-07T01:34:33;100007.05;;;21.71;32.98
69221;BME280;56331;51.992;20.910;2023-04-07T01:37:01;100003.14;;;21.72;32.98
69221;BME280;56331;51.992;20.910;2023-04-07T01:39:28;100002.89;;;21.71;32.94
69221;BME280;56331;51.992;20.910;2023-04-07T01:41:56;100010.28;;;21.73;32.92
69221;BME280;56331;51.992;20.910;2023-04-07T01:44:25;100001.16;;;21.72;32.91
69221;BME280;56331;51.992;20.910;2023-04-07T01:46:53;99999.53;;;21.71;32.92
69221;BME280;56331;51.992;20.910;2023-04-07T01:49:25;99995.63;;;21.72;32.89
69221;BME280;56331;51.992;20.910;2023-04-07T01:51:53;100005.66;;;21.71;32.98
69221;BME280;56331;51.992;20.910;2023-04-07T01:54:20;100000.23;;;21.68;33.04
69221;BME280;56331;51.992;20.910;2023-04-07T01:56:47;100005.66;;;21.71;33.03
69221;BME280;56331;51.992;20.910;2023-04-07T01:59:14;99996.76;;;21.71;32.98
69221;BME280;56331;51.992;20.910;2023-04-07T02:01:41;99989.49;;;21.73;32.90
69221;BME280;56331;51.992;20.910;2023-04-07T02:07:00;99995.25;;;21.74;32.69
69221;BME280;56331;51.992;20.910;2023-04-07T02:09:30;99996.89;;;21.75;32.58
69221;BME280;56331;51.992;20.910;2023-04-07T02:11:59;99992.73;;;21.75;32.46
69221;BME280;56331;51.992;20.910;2023-04-07T02:14:27;99994.92;;;21.75;32.36
69221;BME280;56331;51.992;20.910;2023-04-07T02:16:55;99997.91;;;21.76;32.25
69221;BME280;56331;51.992;20.910;2023-04-07T02:19:22;99994.34;;;21.76;32.16
69221;BME280;56331;51.992;20.910;2023-04-07T02:21:50;100001.27;;;21.76;32.09
69221;BME280;56331;51.992;20.910;2023-04-07T02:24:21;99993.75;;;21.76;32.04
69221;BME280;56331;51.992;20.910;2023-04-07T02:26:47;99998.95;;;21.78;31.98
69221;BME280;56331;51.992;20.910;2023-04-07T02:29:14;100000.68;;;21.76;31.91
69221;BME280;56331;51.992;20.910;2023-04-07T02:31:41;99997.91;;;21.76;31.91
69221;BME280;56331;51.992;20.910;2023-04-07T02:34:07;100002.06;;;21.76;31.84
69221;BME280;56331;51.992;20.910;2023-04-07T02:36:35;100004.28;;;21.77;31.82
69221;BME280;56331;51.992;20.910;2023-04-07T02:39:02;99997.11;;;21.76;31.76
69221;BME280;56331;51.992;20.910;2023-04-07T02:41:29;99993.53;;;21.75;31.72
69221;BME280;56331;51.992;20.910;2023-04-07T02:43:56;99995.50;;;21.75;31.71
69221;BME280;56331;51.992;20.910;2023-04-07T02:46:23;99992.14;;;21.75;31.71
69221;BME280;56331;51.992;20.910;2023-04-07T02:48:49;99989.71;;;21.74;31.69
69221;BME280;56331;51.992;20.910;2023-04-07T02:51:16;99996.30;;;21.75;31.62
69221;BME280;56331;51.992;20.910;2023-04-07T02:53:43;99994.70;;;21.74;31.58
69221;BME280;56331;51.992;20.910;2023-04-07T02:56:14;99992.73;;;21.75;31.56
69221;BME280;56331;51.992;20.910;2023-04-07T02:58:41;99993.53;;;21.75;31.53
69221;BME280;56331;51.992;20.910;2023-04-07T03:01:08;99992.14;;;21.75;31.51
69221;BME280;56331;51.992;20.910;2023-04-07T03:03:34;99995.84;;;21.73;31.52
69221;BME280;56331;51.992;20.910;2023-04-07T03:06:03;99992.38;;;21.70;31.70
69221;BME280;56331;51.992;20.910;2023-04-07T03:08:32;99995.73;;;21.70;31.80
69221;BME280;56331;51.992;20.910;2023-04-07T03:10:58;99987.76;;;21.68;31.89
69221;BME280;56331;51.992;20.910;2023-04-07T03:13:25;99990.89;;;21.67;31.93
69221;BME280;56331;51.992;20.910;2023-04-07T03:15:53;99992.62;;;21.65;31.93
69221;BME280;56331;51.992;20.910;2023-04-07T03:18:22;99990.43;;;21.65;32.00
69221;BME280;56331;51.992;20.910;2023-04-07T03:20:49;99990.43;;;21.65;32.03
69221;BME280;56331;51.992;20.910;2023-04-07T03:23:17;99998.16;;;21.65;32.06
69221;BME280;56331;51.992;20.910;2023-04-07T03:25:44;99995.17;;;21.64;32.15
69221;BME280;56331;51.992;20.910;2023-04-07T03:28:11;99989.38;;;21.63;32.22
69221;BME280;56331;51.992;20.910;2023-04-07T03:30:38;99995.51;;;21.62;32.21
69221;BME280;56331;51.992;20.910;2023-04-07T03:33:04;99989.74;;;21.61;32.22
69221;BME280;56331;51.992;20.910;2023-04-07T03:35:32;99996.09;;;21.62;32.21
69221;BME280;56331;51.992;20.910;2023-04-07T03:37:59;99998.86;;;21.62;32.23
69221;BME280;56331;51.992;20.910;2023-04-07T03:40:25;99991.34;;;21.62;32.22
69221;BME280;56331;51.992;20.910;2023-04-07T03:42:52;99990.55;;;21.62;32.28
69221;BME280;56331;51.992;20.910;2023-04-07T03:45:27;99992.73;;;21.62;32.28
69221;BME280;56331;51.992;20.910;2023-04-07T03:47:54;99990.64;;;21.66;32.23
69221;BME280;56331;51.992;20.910;2023-04-07T03:50:21;99990.43;;;21.65;32.27
69221;BME280;56331;51.992;20.910;2023-04-07T03:52:49;99988.46;;;21.65;32.26
69221;BME280;56331;51.992;20.910;2023-04-07T03:55:16;99987.08;;;21.65;32.30
69221;BME280;56331;51.992;20.910;2023-04-07T03:57:43;99989.05;;;21.65;32.32
69221;BME280;56331;51.992;20.910;2023-04-07T04:00:11;99992.62;;;21.65;32.32
69221;BME280;56331;51.992;20.910;2023-04-07T04:02:38;99988.46;;;21.65;32.36
69221;BME280;56331;51.992;20.910;2023-04-07T04:05:05;99989.51;;;21.67;32.28
69221;BME280;56331;51.992;20.910;2023-04-07T04:07:32;99994.69;;;21.68;32.24
69221;BME280;56331;51.992;20.910;2023-04-07T04:09:59;99991.11;;;21.68;32.27
69221;BME280;56331;51.992;20.910;2023-04-07T04:12:26;99991.33;;;21.69;32.19
69221;BME280;56331;51.992;20.910;2023-04-07T04:14:52;99993.30;;;21.68;32.17
69221;BME280;56331;51.992;20.910;2023-04-07T04:17:19;99992.72;;;21.69;32.12
69221;BME280;56331;51.992;20.910;2023-04-07T04:19:49;99997.71;;;21.69;32.07
69221;BME280;56331;51.992;20.910;2023-04-07T04:22:16;99998.05;;;21.68;32.07
69221;BME280;56331;51.992;20.910;2023-04-07T04:24:43;100003.00;;;21.68;32.05
69221;BME280;56331;51.992;20.910;2023-04-07T04:27:10;100001.28;;;21.70;32.02
69221;BME280;56331;51.992;20.910;2023-04-07T04:29:37;100002.67;;;21.70;32.01
69221;BME280;56331;51.992;20.910;2023-04-07T04:32:03;100007.63;;;21.70;31.98
69221;BME280;56331;51.992;20.910;2023-04-07T04:34:30;100001.28;;;21.70;32.01
69221;BME280;56331;51.992;20.910;2023-04-07T04:36:57;100003.00;;;21.68;32.00
69221;BME280;56331;51.992;20.910;2023-04-07T04:39:23;100004.05;;;21.70;32.00
69221;BME280;56331;51.992;20.910;2023-04-07T04:41:50;99999.90;;;21.70;31.99
69221;BME280;56331;51.992;20.910;2023-04-07T04:44:17;100007.41;;;21.69;32.00
69221;BME280;56331;51.992;20.910;2023-04-07T04:46:43;100006.03;;;21.69;31.95
69221;BME280;56331;51.992;20.910;2023-04-07T04:49:10;100011.79;;;21.70;31.97
69221;BME280;56331;51.992;20.910;2023-04-07T04:51:37;100010.98;;;21.70;31.97
69221;BME280;56331;51.992;20.910;2023-04-07T04:54:05;100011.79;;;21.70;31.98
69221;BME280;56331;51.992;20.910;2023-04-07T04:56:32;100006.24;;;21.70;31.98
69221;BME280;56331;51.992;20.910;2023-04-07T04:59:04;100011.20;;;21.71;31.95
69221;BME280;56331;51.992;20.910;2023-04-07T05:01:30;100006.24;;;21.70;31.99
69221;BME280;56331;51.992;20.910;2023-04-07T05:03:58;100010.19;;;21.69;32.01
69221;BME280;56331;51.992;20.910;2023-04-07T05:06:26;100006.03;;;21.69;31.98
69221;BME280;56331;51.992;20.910;2023-04-07T05:08:53;100011.79;;;21.70;31.99
69221;BME280;56331;51.992;20.910;2023-04-07T05:11:19;100006.83;;;21.70;31.97
69221;BME280;56331;51.992;20.910;2023-04-07T05:13:47;100010.73;;;21.69;32.05
69221;BME280;56331;51.992;20.910;2023-04-07T05:16:13;100012.38;;;21.70;32.07
69221;BME280;56331;51.992;20.910;2023-04-07T05:18:40;100008.44;;;21.71;32.07
69221;BME280;56331;51.992;20.910;2023-04-07T05:21:06;100011.20;;;21.71;32.12
69221;BME280;56331;51.992;20.910;2023-04-07T05:23:33;100009.02;;;21.70;32.19
69221;BME280;56331;51.992;20.910;2023-04-07T05:25:59;100006.24;;;21.70;32.26
69221;BME280;56331;51.992;20.910;2023-04-07T05:28:26;100012.59;;;21.71;32.28
69221;BME280;56331;51.992;20.910;2023-04-07T05:30:52;100004.27;;;21.71;32.30
69221;BME280;56331;51.992;20.910;2023-04-07T05:33:18;100011.20;;;21.71;32.40
69221;BME280;56331;51.992;20.910;2023-04-07T05:35:45;100006.24;;;21.70;32.40
69221;BME280;56331;51.992;20.910;2023-04-07T05:38:12;100012.59;;;21.71;32.46
69221;BME280;56331;51.992;20.910;2023-04-07T05:40:40;100012.95;;;21.69;32.50
69221;BME280;56331;51.992;20.910;2023-04-07T05:43:06;100012.38;;;21.70;32.57
69221;BME280;56331;51.992;20.910;2023-04-07T05:45:33;100013.17;;;21.70;32.57
69221;BME280;56331;51.992;20.910;2023-04-07T05:47:59;100012.12;;;21.69;32.72
69221;BME280;56331;51.992;20.910;2023-04-07T05:50:25;100010.41;;;21.70;32.72
69221;BME280;56331;51.992;20.910;2023-04-07T05:52:52;100011.20;;;21.71;32.80
69221;BME280;56331;51.992;20.910;2023-04-07T05:55:19;100014.78;;;21.71;32.91
69221;BME280;56331;51.992;20.910;2023-04-07T05:57:45;100010.62;;;21.71;33.03
69221;BME280;56331;51.992;20.910;2023-04-07T06:00:13;100008.68;;;21.72;33.16
69221;BME280;56331;51.992;20.910;2023-04-07T06:02:40;100013.64;;;21.72;33.17
69221;BME280;56331;51.992;20.910;2023-04-07T06:05:07;100017.22;;;21.73;33.23
69221;BME280;56331;51.992;20.910;2023-04-07T06:07:34;100001.75;;;21.72;33.32
69221;BME280;56331;51.992;20.910;2023-04-07T06:10:00;100003.35;;;21.73;33.29
69221;BME280;56331;51.992;20.910;2023-04-07T06:12:27;100009.48;;;21.72;33.33
69221;BME280;56331;51.992;20.910;2023-04-07T06:14:54;100003.94;;;21.72;33.44
69221;BME280;56331;51.992;20.910;2023-04-07T06:17:22;100006.71;;;21.72;33.52
69221;BME280;56331;51.992;20.910;2023-04-07T06:19:48;100010.87;;;21.72;33.57
69221;BME280;56331;51.992;20.910;2023-04-07T06:22:15;100006.71;;;21.72;33.70
69221;BME280;56331;51.992;20.910;2023-04-07T06:24:41;100008.90;;;21.73;33.83
69221;BME280;56331;51.992;20.910;2023-04-07T06:27:08;100004.16;;;21.73;33.90
69221;BME280;56331;51.992;20.910;2023-04-07T06:29:35;100009.48;;;21.72;34.09
69221;BME280;56331;51.992;20.910;2023-04-07T06:32:03;100002.55;;;21.72;34.10
69221;BME280;56331;51.992;20.910;2023-04-07T06:34:30;100009.70;;;21.73;34.15
69221;BME280;56331;51.992;20.910;2023-04-07T06:36:56;100008.90;;;21.73;34.23
69221;BME280;56331;51.992;20.910;2023-04-07T06:39:25;100006.71;;;21.72;34.27
69221;BME280;56331;51.992;20.910;2023-04-07T06:41:51;100005.66;;;21.71;34.39
69221;BME280;56331;51.992;20.910;2023-04-07T06:44:18;99998.39;;;21.72;34.34
69221;BME280;56331;51.992;20.910;2023-04-07T06:46:44;100005.55;;;21.73;34.37
69221;BME280;56331;51.992;20.910;2023-04-07T06:49:13;100008.90;;;21.73;34.46
69221;BME280;56331;51.992;20.910;2023-04-07T06:51:39;100012.25;;;21.72;34.48
69221;BME280;56331;51.992;20.910;2023-04-07T06:54:09;100010.06;;;21.72;34.51
69221;BME280;56331;51.992;20.910;2023-04-07T06:56:37;100005.08;;;21.71;34.56
69221;BME280;56331;51.992;20.910;2023-04-07T06:59:04;100012.25;;;21.72;34.56
69221;BME280;56331;51.992;20.910;2023-04-07T07:01:30;100009.48;;;21.72;34.58
69221;BME280;56331;51.992;20.910;2023-04-07T07:03:59;100015.25;;;21.73;34.67
69221;BME280;56331;51.992;20.910;2023-04-07T07:06:28;100006.71;;;21.72;34.69
69221;BME280;56331;51.992;20.910;2023-04-07T07:08:54;100008.09;;;21.72;34.77
69221;BME280;56331;51.992;20.910;2023-04-07T07:11:20;100008.31;;;21.73;34.73
69221;BME280;56331;51.992;20.910;2023-04-07T07:13:49;100007.30;;;21.72;34.83
69221;BME280;56331;51.992;20.910;2023-04-07T07:16:15;100008.09;;;21.72;34.95
69221;BME280;56331;51.992;20.910;2023-04-07T07:18:41;100007.30;;;21.72;34.94
69221;BME280;56331;51.992;20.910;2023-04-07T07:21:08;100012.25;;;21.72;34.97
69221;BME280;56331;51.992;20.910;2023-04-07T07:23:35;100003.14;;;21.72;35.02
69221;BME280;56331;51.992;20.910;2023-04-07T07:26:02;100009.70;;;21.73;35.04
69221;BME280;56331;51.992;20.910;2023-04-07T07:28:29;100000.36;;;21.72;35.03
69221;BME280;56331;51.992;20.910;2023-04-07T07:30:55;100003.94;;;21.72;35.10
69221;BME280;56331;51.992;20.910;2023-04-07T07:33:21;100009.23;;;21.71;35.23
69221;BME280;56331;51.992;20.910;2023-04-07T07:35:48;100007.75;;;21.68;35.44
69221;BME280;56331;51.992;20.910;2023-04-07T07:40:54;100018.95;;;21.65;35.51
69221;BME280;56331;51.992;20.910;2023-04-07T07:43:21;100012.61;;;21.65;35.57
69221;BME280;56331;51.992;20.910;2023-04-07T07:45:49;100010.42;;;21.64;35.63
69221;BME280;56331;51.992;20.910;2023-04-07T07:48:15;100016.52;;;21.63;35.75
69221;BME280;56331;51.992;20.910;2023-04-07T07:50:42;100019.28;;;21.63;35.90
69221;BME280;56331;51.992;20.910;2023-04-07T07:53:09;100017.90;;;21.63;36.12
69221;BME280;56331;51.992;20.910;2023-04-07T07:55:36;100016.30;;;21.62;36.33
69221;BME280;56331;51.992;20.910;2023-04-07T07:58:02;100026.58;;;21.62;36.44
69221;BME280;56331;51.992;20.910;2023-04-07T08:00:31;100026.22;;;21.63;36.75
69221;BME280;56331;51.992;20.910;2023-04-07T08:02:58;100022.42;;;21.62;36.91
69221;BME280;56331;51.992;20.910;2023-04-07T08:05:27;100022.64;;;21.63;37.12
69221;BME280;56331;51.992;20.910;2023-04-07T08:07:53;100021.51;;;21.64;37.27
69221;BME280;56331;51.992;20.910;2023-04-07T08:10:20;100025.08;;;21.65;37.46
69221;BME280;56331;51.992;20.910;2023-04-07T08:12:49;100028.44;;;21.64;37.65
69221;BME280;56331;51.992;20.910;2023-04-07T08:15:16;100026.47;;;21.65;37.72
69221;BME280;56331;51.992;20.910;2023-04-07T08:17:44;100021.51;;;21.64;37.78
69221;BME280;56331;51.992;20.910;2023-04-07T08:20:11;100023.81;;;21.62;37.91
69221;BME280;56331;51.992;20.910;2023-04-07T08:22:37;100033.73;;;21.63;37.84
69221;BME280;56331;51.992;20.910;2023-04-07T08:25:07;100023.45;;;21.63;37.79
69221;BME280;56331;51.992;20.910;2023-04-07T08:27:33;100026.22;;;21.63;37.87
69221;BME280;56331;51.992;20.910;2023-04-07T08:30:01;100026.00;;;21.62;37.88
69221;BME280;56331;51.992;20.910;2023-04-07T08:32:42;100025.41;;;21.63;37.86
69221;BME280;56331;51.992;20.910;2023-04-07T08:35:09;100018.62;;;21.67;37.65
69221;BME280;56331;51.992;20.910;2023-04-07T08:37:36;100023.80;;;21.68;37.63
69221;BME280;56331;51.992;20.910;2023-04-07T08:40:04;100021.02;;;21.68;37.64
69221;BME280;56331;51.992;20.910;2023-04-07T08:42:32;100019.89;;;21.69;37.52
69221;BME280;56331;51.992;20.910;2023-04-07T08:45:04;100022.30;;;21.71;37.53
69221;BME280;56331;51.992;20.910;2023-04-07T08:47:32;100022.42;;;21.74;37.62
69221;BME280;56331;51.992;20.910;2023-04-07T08:50:05;100018.48;;;21.75;37.55
69221;BME280;56331;51.992;20.910;2023-04-07T08:52:39;100018.70;;;21.76;37.87
69221;BME280;56331;51.992;20.910;2023-04-07T08:55:02;100017.78;;;21.78;38.26
69221;BME280;56331;51.992;20.910;2023-04-07T08:57:31;100026.78;;;21.81;38.63
69221;BME280;56331;51.992;20.910;2023-04-07T08:59:59;100020.77;;;21.79;38.45
69221;BME280;56331;51.992;20.910;2023-04-07T09:02:36;100022.05;;;21.82;38.16
69221;BME280;56331;51.992;20.910;2023-04-07T09:05:05;100021.92;;;21.84;37.97
69221;BME280;56331;51.992;20.910;2023-04-07T09:07:33;100018.48;;;21.88;37.67
69221;BME280;56331;51.992;20.910;2023-04-07T09:10:00;100019.97;;;21.91;37.57
69221;BME280;56331;51.992;20.910;2023-04-07T09:12:27;100023.42;;;21.94;37.39
69221;BME280;56331;51.992;20.910;2023-04-07T09:14:54;100019.94;;;21.97;37.33
69221;BME280;56331;51.992;20.910;2023-04-07T09:17:21;100020.41;;;21.99;37.28
69221;BME280;56331;51.992;20.910;2023-04-07T09:19:48;100020.66;;;22.00;37.23
69221;BME280;56331;51.992;20.910;2023-04-07T09:22:18;100021.92;;;22.03;37.14
69221;BME280;56331;51.992;20.910;2023-04-07T09:24:43;100021.46;;;22.01;37.20
69221;BME280;56331;51.992;20.910;2023-04-07T09:27:14;100020.07;;;22.01;37.35
69221;BME280;56331;51.992;20.910;2023-04-07T09:29:45;100015.91;;;22.01;37.49
69221;BME280;56331;51.992;20.910;2023-04-07T09:34:59;100018.00;;;21.98;37.66
69221;BME280;56331;51.992;20.910;2023-04-07T09:37:26;100018.67;;;21.95;37.85
69221;BME280;56331;51.992;20.910;2023-04-07T09:39:52;100019.63;;;21.93;37.98
69221;BME280;56331;51.992;20.910;2023-04-07T09:42:19;100015.00;;;21.91;38.44
69221;BME280;56331;51.992;20.910;2023-04-07T09:44:46;100021.69;;;21.90;38.72
69221;BME280;56331;51.992;20.910;2023-04-07T09:47:13;100020.67;;;21.88;39.18
69221;BME280;56331;51.992;20.910;2023-04-07T09:49:50;100022.64;;;21.88;39.35
69221;BME280;56331;51.992;20.910;2023-04-07T09:52:20;100018.70;;;21.89;39.31
69221;BME280;56331;51.992;20.910;2023-04-07T09:54:47;100027.23;;;21.90;39.29
69221;BME280;56331;51.992;20.910;2023-04-07T09:57:14;100019.75;;;21.90;39.25
69221;BME280;56331;51.992;20.910;2023-04-07T09:59:43;100023.08;;;21.90;39.21
69221;BME280;56331;51.992;20.910;2023-04-07T10:02:10;100027.23;;;21.90;39.26
69221;BME280;56331;51.992;20.910;2023-04-07T10:04:37;100026.09;;;21.91;39.17
69221;BME280;56331;51.992;20.910;2023-04-07T10:07:06;100028.87;;;21.91;39.30
69221;BME280;56331;51.992;20.910;2023-04-07T10:09:32;100024.36;;;21.86;39.48
69221;BME280;56331;51.992;20.910;2023-04-07T10:11:58;100027.59;;;21.88;39.71
69221;BME280;56331;51.992;20.910;2023-04-07T10:14:27;100028.62;;;21.90;40.43
69221;BME280;56331;51.992;20.910;2023-04-07T10:16:54;100030.47;;;21.92;40.03
69221;BME280;56331;51.992;20.910;2023-04-07T10:19:21;100030.47;;;21.92;40.03
69221;BME280;56331;51.992;20.910;2023-04-07T10:21:51;100032.80;;;21.96;39.83
69221;BME280;56331;51.992;20.910;2023-04-07T10:27:08;100032.19;;;22.02;39.45
69221;BME280;56331;51.992;20.910;2023-04-07T10:29:39;100028.73;;;22.05;39.36
69221;BME280;56331;51.992;20.910;2023-04-07T10:32:06;100029.30;;;22.05;39.73
69221;BME280;56331;51.992;20.910;2023-04-07T10:37:25;100030.92;;;22.06;41.04
69221;BME280;56331;51.992;20.910;2023-04-07T10:42:47;100031.14;;;22.07;40.58
69221;BME280;56331;51.992;20.910;2023-04-07T10:45:20;100032.06;;;22.05;40.77
69221;BME280;56331;51.992;20.910;2023-04-07T10:50:25;100035.55;;;22.02;40.66
69221;BME280;56331;51.992;20.910;2023-04-07T10:53:15;100041.67;;;22.01;40.53
69221;BME280;56331;51.992;20.910;2023-04-07T10:55:41;100043.18;;;21.99;40.48
69221;BME280;56331;51.992;20.910;2023-04-07T11:03:37;100051.84;;;21.97;40.57
69221;BME280;56331;51.992;20.910;2023-04-07T11:06:12;100048.39;;;22.00;40.50
69221;BME280;56331;51.992;20.910;2023-04-07T11:08:44;100049.78;;;22.00;40.53
69221;BME280;56331;51.992;20.910;2023-04-07T11:11:14;100052.19;;;22.02;40.66
69221;BME280;56331;51.992;20.910;2023-04-07T11:13:48;100048.73;;;21.99;40.91
69221;BME280;56331;51.992;20.910;2023-04-07T11:16:17;100047.34;;;21.99;41.06
69221;BME280;56331;51.992;20.910;2023-04-07T11:18:45;100054.06;;;21.98;41.35
69221;BME280;56331;51.992;20.910;2023-04-07T11:21:18;100054.06;;;21.98;41.35
69221;BME280;56331;51.992;20.910;2023-04-07T11:23:45;100052.42;;;21.97;41.39
69221;BME280;56331;51.992;20.910;2023-04-07T11:26:14;100052.42;;;21.97;41.54
69221;BME280;56331;51.992;20.910;2023-04-07T11:28:55;100048.27;;;21.97;41.89
69221;BME280;56331;51.992;20.910;2023-04-07T11:31:26;100050.02;;;21.95;42.20
69221;BME280;56331;51.992;20.910;2023-04-07T11:33:58;100056.12;;;21.95;42.16
69221;BME280;56331;51.992;20.910;2023-04-07T11:36:27;100055.31;;;21.94;42.20
69221;BME280;56331;51.992;20.910;2023-04-07T11:38:53;100056.48;;;21.93;42.38
69221;BME280;56331;51.992;20.910;2023-04-07T11:41:21;100054.05;;;21.92;42.29
69221;BME280;56331;51.992;20.910;2023-04-07T11:43:48;100055.44;;;21.92;42.31
69221;BME280;56331;51.992;20.910;2023-04-07T11:46:17;100057.41;;;21.91;42.39
69221;BME280;56331;51.992;20.910;2023-04-07T11:48:44;100061.78;;;21.92;42.53
69221;BME280;56331;51.992;20.910;2023-04-07T11:51:25;100056.60;;;21.91;42.60
69221;BME280;56331;51.992;20.910;2023-04-07T11:53:45;100056.13;;;21.89;42.59
69221;BME280;56331;51.992;20.910;2023-04-07T11:56:14;100057.52;;;21.89;42.64
69221;BME280;56331;51.992;20.910;2023-04-07T11:58:51;100056.72;;;21.88;42.71
69221;BME280;56331;51.992;20.910;2023-04-07T12:01:18;100052.78;;;21.89;42.65
69221;BME280;56331;51.992;20.910;2023-04-07T12:04:00;100060.08;;;21.88;43.08
69221;BME280;56331;51.992;20.910;2023-04-07T12:06:36;100054.77;;;21.82;43.49
69221;BME280;56331;51.992;20.910;2023-04-07T12:09:01;100060.06;;;21.81;43.50
69221;BME280;56331;51.992;20.910;2023-04-07T12:11:28;100052.22;;;21.77;43.79
69221;BME280;56331;51.992;20.910;2023-04-07T12:13:55;100049.20;;;21.76;44.25
69221;BME280;56331;51.992;20.910;2023-04-07T12:16:22;100049.56;;;21.75;44.64
69221;BME280;56331;51.992;20.910;2023-04-07T12:18:54;100054.31;;;21.74;45.00
69221;BME280;56331;51.992;20.910;2023-04-07T12:21:18;100047.71;;;21.73;45.09
69221;BME280;56331;51.992;20.910;2023-04-07T12:23:45;100058.22;;;21.73;45.19
69221;BME280;56331;51.992;20.910;2023-04-07T12:26:12;100054.98;;;21.71;45.38
69221;BME280;56331;51.992;20.910;2023-04-07T12:28:38;100069.67;;;21.72;45.49
69221;BME280;56331;51.992;20.910;2023-04-07T12:31:06;100076.02;;;21.72;45.73
69221;BME280;56331;51.992;20.910;2023-04-07T12:33:33;100082.95;;;21.72;46.02
69221;BME280;56331;51.992;20.910;2023-04-07T12:36:00;100091.27;;;21.72;45.97
69221;BME280;56331;51.992;20.910;2023-04-07T12:38:27;100079.38;;;21.72;46.11
69221;BME280;56331;51.992;20.910;2023-04-07T12:40:54;100083.42;;;21.74;46.59
69221;BME280;56331;51.992;20.910;2023-04-07T12:43:20;100098.89;;;21.75;47.09
69221;BME280;56331;51.992;20.910;2023-04-07T12:45:46;100103.05;;;21.75;46.55
69221;BME280;56331;51.992;20.910;2023-04-07T12:48:13;100112.53;;;21.74;46.37
69221;BME280;56331;51.992;20.910;2023-04-07T12:50:39;100107.32;;;21.73;46.42
69221;BME280;56331;51.992;20.910;2023-04-07T12:53:05;100111.48;;;21.73;46.20
69221;BME280;56331;51.992;20.910;2023-04-07T12:55:32;100114.58;;;21.71;46.16
69221;BME280;56331;51.992;20.910;2023-04-07T12:58:00;100110.20;;;21.70;46.06
69221;BME280;56331;51.992;20.910;2023-04-07T13:00:27;100107.77;;;21.69;46.02
69221;BME280;56331;51.992;20.910;2023-04-07T13:02:53;100113.89;;;21.68;45.94
69221;BME280;56331;51.992;20.910;2023-04-07T13:05:20;100115.28;;;21.68;46.04
69221;BME280;56331;51.992;20.910;2023-04-07T13:07:46;100117.25;;;21.68;46.07
69221;BME280;56331;51.992;20.910;2023-04-07T13:10:13;100113.09;;;21.68;46.05
69221;BME280;56331;51.992;20.910;2023-04-07T13:12:39;100117.83;;;21.67;46.08
69221;BME280;56331;51.992;20.910;2023-04-07T13:15:07;100114.48;;;21.68;46.22
69221;BME280;56331;51.992;20.910;2023-04-07T13:17:34;100114.14;;;21.69;46.32